DW2802 Ogijares ES current weather conditions

sailwx.info

Wind from 321

Air temperature 10.0° C
Dewpoint 8.4° C

Last reported at 2016-Dec-04 19:50 UTC.
Time now 2016-Dec-04 20:25 UTC

Location: N 37°07' W 003°36'.
View on Google Maps.

See reports from other nearby stations

  
Tides and Currents Weather Stations Pressure Air Temp Water Temp Dewpoint Dewpoint Depression Visibility Wind Speed Wind Dir Waves Ship Positions
date/time (UTC)wind fromknots sea level pressurealtimeterstation pressurevisibilityair tempwater tempwave heightnotes
2016-Dec-04 19:50 321 10.0
2016-Dec-04 19:35 321 0 gusting 4 10.6
2016-Dec-04 19:21 321 10.6
2016-Dec-04 19:06 321 11.1
2016-Dec-04 18:50 321 11.1
2016-Dec-04 18:35 321 11.7
2016-Dec-04 18:21 321 12.2
2016-Dec-04 18:05 321 12.2
2016-Dec-04 17:51 321 12.2
2016-Dec-04 17:35 321 12.2
2016-Dec-04 17:21 321 12.8
2016-Dec-04 17:06 321 12.8
2016-Dec-04 16:51 321 13.3
2016-Dec-04 16:35 321 13.3
2016-Dec-04 16:20 321 1 gusting 3 13.3
2016-Dec-04 16:05 321 1 gusting 3 13.3
2016-Dec-04 15:50 281 1 gusting 6 13.9
2016-Dec-04 15:35 281 0 gusting 6 14.4
2016-Dec-04 15:20 281 1 gusting 2 14.4
2016-Dec-04 15:05 281 0 gusting 3 14.4
2016-Dec-04 14:50 278 2 gusting 6 13.9
2016-Dec-04 14:35 317 2 gusting 6 14.4
2016-Dec-04 14:20 065 0 gusting 4 15.0
2016-Dec-04 14:05 114 14.4
2016-Dec-04 13:50 201 14.4
2016-Dec-04 13:35 201 13.9
2016-Dec-04 13:20 201 13.3
2016-Dec-04 13:05 201 12.8
2016-Dec-04 12:50 200 0 gusting 3 12.8
2016-Dec-04 12:35 198 1 gusting 3 12.8
2016-Dec-04 12:20 198 1 gusting 2 12.2
2016-Dec-04 12:05 198 0 gusting 2 12.2
2016-Dec-04 11:50 197 0 gusting 3 11.7
2016-Dec-04 11:35 198 0 gusting 3 11.7
2016-Dec-04 11:20 194 1 gusting 3 11.1
2016-Dec-04 11:05 194 0 gusting 2 10.6
2016-Dec-04 10:50 194 1 gusting 3 10.6
2016-Dec-04 10:35 194 1 gusting 5 10.6
2016-Dec-04 10:20 145 10.0
2016-Dec-04 10:05 091 10.0
2016-Dec-04 09:50 091 10.0
2016-Dec-04 09:35 091 10.0
2016-Dec-04 09:20 089 10.0
2016-Dec-04 09:05 090 1 gusting 6 10.0
2016-Dec-04 08:49 005 1 gusting 3 10.0
2016-Dec-04 08:35 284 0 gusting 3 10.0
2016-Dec-04 08:19 280 0 gusting 4 10.0
2016-Dec-04 08:05 280 0 gusting 4 10.0
2016-Dec-04 07:49 279 1 gusting 6 10.0
2016-Dec-04 07:34 344 0 gusting 5 10.0
2016-Dec-04 07:19 355 1 gusting 7 10.0
2016-Dec-04 07:04 355 4 gusting 8 10.6
2016-Dec-04 06:49 009 2 gusting 7 11.1
2016-Dec-04 06:34 313 6 gusting 10 11.7
2016-Dec-04 06:19 338 3 gusting 6 11.7
2016-Dec-04 06:04 093 0 gusting 5 11.7
2016-Dec-04 05:49 067 3 gusting 6 11.1
2016-Dec-04 05:34 145 2 gusting 6 11.7
2016-Dec-04 05:19 066 2 gusting 8 11.7
2016-Dec-04 05:04 010 6 gusting 12 11.7
2016-Dec-04 04:49 043 1 gusting 9 11.1
2016-Dec-04 04:34 336 0 gusting 5 11.1
2016-Dec-04 04:19 197 1 gusting 6 11.1
2016-Dec-04 04:04 011 7 gusting 10 11.1
2016-Dec-04 03:49 084 2 gusting 6 11.1
2016-Dec-04 03:34 119 0 gusting 3 11.1
2016-Dec-04 03:19 087 1 gusting 6 11.7
2016-Dec-04 03:04 178 3 gusting 8 11.1
2016-Dec-04 02:49 235 11.1
2016-Dec-04 02:34 235 1 gusting 8 11.1
2016-Dec-04 02:19 311 2 gusting 5 11.1
2016-Dec-04 02:05 064 1 gusting 3 11.1
2016-Dec-04 01:49 024 11.7
2016-Dec-04 01:34 022 11.1
2016-Dec-04 01:19 052 11.1
2016-Dec-04 01:04 333 3 gusting 8 11.1
2016-Dec-04 00:49 327 0 gusting 4 11.1
2016-Dec-04 00:34 323 6 gusting 10 11.1
2016-Dec-04 00:19 037 11.7
2016-Dec-04 00:04 057 3 gusting 7 11.7
2016-Dec-03 23:49 060 2 gusting 7 11.7
2016-Dec-03 23:34 070 3 gusting 8 11.7
2016-Dec-03 23:18 178 5 gusting 11 11.7
2016-Dec-03 23:04 197 5 gusting 8 11.7
2016-Dec-03 22:48 236 11.7
2016-Dec-03 22:33 235 3 gusting 6 11.7
2016-Dec-03 22:19 112 11.7
2016-Dec-03 22:03 119 11.7
2016-Dec-03 21:48 135 1 gusting 4 11.7
2016-Dec-03 21:33 202 0 gusting 3 11.1
2016-Dec-03 21:19 202 11.1
2016-Dec-03 21:04 202 11.1
2016-Dec-03 20:48 202 11.1
2016-Dec-03 20:34 202 11.7
2016-Dec-03 20:19 202 11.7
2016-Dec-03 20:03 202 11.7
2016-Dec-03 19:48 202 11.7
2016-Dec-03 19:33 202 1 gusting 3 11.7
2016-Dec-03 19:18 244 2 gusting 6 11.7
2016-Dec-03 19:04 287 12.2
2016-Dec-03 18:48 054 1 gusting 4 12.2
2016-Dec-03 18:33 080 2 gusting 7 12.2
2016-Dec-03 18:18 059 0 gusting 6 12.2
2016-Dec-03 18:03 049 0 gusting 7 12.8
2016-Dec-03 17:48 151 6 gusting 10 12.8
2016-Dec-03 17:33 036 1 gusting 7 12.2
2016-Dec-03 17:18 090 12.2
2016-Dec-03 17:04 090 12.2
2016-Dec-03 16:48 090 12.8
2016-Dec-03 16:33 090 12.8
2016-Dec-03 16:18 090 12.8
2016-Dec-03 16:03 005 0 gusting 3 13.3
2016-Dec-03 15:48 005 13.9
2016-Dec-03 15:33 005 13.9
2016-Dec-03 15:18 010 13.9
2016-Dec-03 15:03 011 2 gusting 5 14.4
2016-Dec-03 14:48 009 5 gusting 7 14.4
2016-Dec-03 14:33 119 6 gusting 8 14.4
2016-Dec-03 14:18 145 14.4
2016-Dec-03 14:03 169 5 gusting 10 13.9
2016-Dec-03 13:48 051 0 gusting 4 13.9
2016-Dec-03 13:33 294 13.9
2016-Dec-03 13:18 100 13.9
2016-Dec-03 13:03 016 13.9
2016-Dec-03 12:48 021 13.9
2016-Dec-03 12:33 021 13.3
2016-Dec-03 12:18 021 13.3
2016-Dec-03 12:03 021 13.3
2016-Dec-03 11:48 022 13.9
2016-Dec-03 11:33 022 0 gusting 4 13.9
2016-Dec-03 11:18 018 3 gusting 5 12.8
2016-Dec-03 11:02 071 12.2
2016-Dec-03 10:47 128 12.2
2016-Dec-03 10:32 147 11.7
2016-Dec-03 10:18 155 11.1
2016-Dec-03 10:02 156 11.1
2016-Dec-03 09:47 159 11.1
2016-Dec-03 09:32 159 10.6
2016-Dec-03 09:18 159 10.0
2016-Dec-03 09:02 159 10.0
2016-Dec-03 08:47 159 9.4
2016-Dec-03 08:32 159 9.4
2016-Dec-03 08:17 159 9.4
2016-Dec-03 08:02 137 9.4
2016-Dec-03 07:47 092 9.4
2016-Dec-03 07:32 117 9.4
2016-Dec-03 07:17 117 9.4
2016-Dec-03 07:02 117 9.4
2016-Dec-03 06:47 117 8.9
2016-Dec-03 06:32 117 8.9
2016-Dec-03 06:17 117 8.9
2016-Dec-03 06:02 117 8.9
2016-Dec-03 05:47 117 8.9
2016-Dec-03 05:32 117 8.9
2016-Dec-03 05:17 117 8.9
2016-Dec-03 05:02 117 8.9
2016-Dec-03 04:47 117 8.9
2016-Dec-03 04:32 117 8.9
2016-Dec-03 04:16 118 8.9
2016-Dec-03 04:02 117 8.9
2016-Dec-03 03:47 117 8.9
2016-Dec-03 03:32 117 8.9
2016-Dec-03 03:16 117 8.9
2016-Dec-03 03:02 117 8.9
2016-Dec-03 02:47 117 8.9
2016-Dec-03 02:31 117 8.9
2016-Dec-03 02:16 118 8.9
2016-Dec-03 02:01 117 9.4
2016-Dec-03 01:46 117 9.4
2016-Dec-03 01:31 117 9.4
2016-Dec-03 01:17 117 9.4
2016-Dec-03 01:01 117 9.4
2016-Dec-03 00:46 117 9.4
2016-Dec-03 00:31 117 9.4
2016-Dec-03 00:16 117 9.4
2016-Dec-03 00:01 117 9.4
2016-Dec-02 23:46 117 9.4
2016-Dec-02 23:31 117 9.4
2016-Dec-02 23:16 117 9.4
2016-Dec-02 23:01 117 9.4
2016-Dec-02 22:47 117 9.4
2016-Dec-02 22:31 117 9.4
2016-Dec-02 22:16 117 9.4
2016-Dec-02 22:01 117 10.0
2016-Dec-02 21:46 117 10.0
2016-Dec-02 21:31 117 10.0
2016-Dec-02 21:16 117 10.0
2016-Dec-02 21:01 117 10.0
2016-Dec-02 20:46 118 10.6
2016-Dec-02 20:31 118 10.6
2016-Dec-02 20:16 118 10.0
2016-Dec-02 20:01 118 10.0